Flores, Brazil
Current Conditions -  °F | °C
As of 10:00 AM on Thursday 18 Dec 2014 (Local Time) from SBJU Reporting Station
Broken Clouds Broken Clouds  
Wind Chill: 79°   Ceiling: 2000
Heat Index: 83°   Visibility: 6mi
Dew Point: 77°   Wind: 6mph
Humidity: 94%   Direction: 170°S
Pressure: 30.06"   Gusts: NA
Location:  7.87°S, 37.97°W
Report Text: SBJU 181300Z 17005KT 9999 SCT010 BKN020 26/25 Q1018
Loading
Personal Weather Stations






























Interactive Weather Map New forecast layout! Learn more

10-Day Weather Forecast

Advertisements
Track Severe Weather on mobile